Time;durP1;ratioP1;P1;durP2;ratioP2;P2;SDS_P1;SDS_P2;PMS_P1;PMS_P2;Temp;Humidity;BMP_temperature;BMP_pressure;BME280_temperature;BME280_humidity;BME280_pressure;Samples;Min_cycle;Max_cycle;Signal;HPM_P1;HPM_P2
2022/05/27 00:00:51;;;;;;;;;;;;;;;19.35;64.37;100633.66;2042562;28;19922;-48
2022/05/27 00:01:52;;;;;;;;;;;;;;;19.33;63.96;100636.78;2042265;28;19918;-48
2022/05/27 00:02:52;;;;;;;;;;;;;;;19.33;64.04;100633.25;2043903;28;19993;-50
2022/05/27 00:03:53;;;;;;;;;;;;;;;19.34;64.20;100637.59;2043321;28;19922;-50
2022/05/27 00:04:53;;;;;;;;;;;;;;;19.34;64.21;100634.84;2039420;28;19973;-47
2022/05/27 00:05:53;;;;;;;;;;;;;;;19.34;64.41;100627.38;2045066;28;20387;-48
2022/05/27 00:06:54;;;;;;;;;;;;;;;19.34;64.84;100629.34;2043070;28;19921;-48
2022/05/27 00:07:55;;;;;;;;;;;;;;;19.33;64.89;100636.78;2043646;28;19914;-51
2022/05/27 00:08:55;;;;;;;;;;;;;;;19.34;64.94;100634.84;2048453;28;19993;-48
2022/05/27 00:09:55;;;;;;;;;;;;;;;19.35;64.73;100636.41;2043151;28;19918;-50
2022/05/27 00:10:56;;;;;;;;;;;;;;;19.34;64.86;100627.38;2047457;28;20178;-49
2022/05/27 00:11:56;;;;;;;;;;;;;;;19.34;65.24;100630.13;2043929;28;20148;-50
2022/05/27 00:12:57;;;;;;;;;;;;;;;19.34;65.24;100638.38;2047436;28;20419;-49
2022/05/27 00:13:57;;;;;;;;;;;;;;;19.34;64.98;100635.63;2044367;28;19917;-48
2022/05/27 00:14:58;;;;;;;;;;;;;;;19.34;64.96;100624.63;2043317;28;19918;-49
2022/05/27 00:15:58;;;;;;;;;;;;;;;19.34;65.04;100627.38;2046342;28;20174;-50
2022/05/27 00:16:59;;;;;;;;;;;;;;;19.35;65.07;100639.16;2043595;28;19922;-49
2022/05/27 00:17:59;;;;;;;;;;;;;;;19.35;64.96;100628.91;2044581;28;19982;-49
2022/05/27 00:19:00;;;;;;;;;;;;;;;19.34;65.17;100632.88;2043951;28;19941;-49
2022/05/27 00:20:00;;;;;;;;;;;;;;;19.35;65.33;100633.66;2043423;28;19989;-51
2022/05/27 00:21:00;;;;;;;;;;;;;;;19.35;65.13;100630.91;2043836;28;20253;-49
2022/05/27 00:22:01;;;;;;;;;;;;;;;19.35;65.21;100637.16;2041746;28;19918;-49
2022/05/27 00:23:01;;;;;;;;;;;;;;;19.35;65.23;100633.66;2045673;28;20133;-49
2022/05/27 00:24:02;;;;;;;;;;;;;;;19.35;64.75;100639.91;2043795;28;19918;-50
2022/05/27 00:25:03;;;;;;;;;;;;;;;19.34;64.97;100632.09;2043758;28;20033;-49
2022/05/27 00:26:03;;;;;;;;;;;;;;;19.33;65.09;100634.06;2044886;28;20220;-51
2022/05/27 00:27:06;;;;;;;;;;;;;;;19.34;64.87;100629.34;2042412;28;19976;-52
2022/05/27 00:28:07;;;;;;;;;;;;;;;19.33;64.77;100628.56;2049747;28;19952;-48
2022/05/27 00:29:07;;;;;;;;;;;;;;;19.35;64.68;100634.41;2050553;28;19967;-50
2022/05/27 00:30:09;;;;;;;;;;;;;;;19.35;64.82;100628.16;2043070;28;19961;-48
2022/05/27 00:31:09;;;;;;;;;;;;;;;19.33;65.07;100617.56;2051696;28;19913;-51
2022/05/27 00:32:10;;;;;;;;;;;;;;;19.35;65.07;100628.16;2041305;28;19906;-47
2022/05/27 00:33:10;;;;;;;;;;;;;;;19.33;65.11;100620.31;2042218;28;19918;-50
2022/05/27 00:34:11;;;;;;;;;;;;;;;19.33;64.98;100620.31;2042583;28;19945;-50
2022/05/27 00:35:11;;;;;;;;;;;;;;;19.33;65.12;100617.56;2043521;28;19967;-50
2022/05/27 00:36:12;;;;;;;;;;;;;;;19.34;65.14;100616.41;2040326;28;19914;-47
2022/05/27 00:37:12;;;;;;;;;;;;;;;19.33;65.39;100617.56;2044699;28;19914;-49
2022/05/27 00:38:12;;;;;;;;;;;;;;;19.33;64.94;100616.78;2043036;28;19921;-51
2022/05/27 00:39:13;;;;;;;;;;;;;;;19.31;64.72;100611.69;2044327;28;19921;-51
2022/05/27 00:40:14;;;;;;;;;;;;;;;19.30;64.32;100612.88;2044132;28;19965;-50
2022/05/27 00:41:15;;;;;;;;;;;;;;;19.30;64.38;100610.13;2043390;28;19929;-50
2022/05/27 00:42:15;;;;;;;;;;;;;;;19.29;64.48;100611.31;2043560;28;19920;-50
2022/05/27 00:43:16;;;;;;;;;;;;;;;19.27;64.34;100599.94;2052716;28;20299;-49
2022/05/27 00:44:16;;;;;;;;;;;;;;;19.28;64.56;100615.25;2047753;28;19917;-49
2022/05/27 00:45:18;;;;;;;;;;;;;;;19.28;64.50;100607.00;2044176;28;19914;-48
2022/05/27 00:46:21;;;;;;;;;;;;;;;19.28;64.64;100611.72;2046634;28;20233;-51
2022/05/27 00:47:25;;;;;;;;;;;;;;;19.27;64.36;100610.94;2043614;28;19918;-50
2022/05/27 00:48:25;;;;;;;;;;;;;;;19.28;64.42;100611.72;2044222;28;19922;-51
2022/05/27 00:49:26;;;;;;;;;;;;;;;19.28;64.43;100600.72;2044646;28;19957;-51
2022/05/27 00:50:29;;;;;;;;;;;;;;;19.29;64.67;100607.78;2042439;28;19981;-51
2022/05/27 00:51:32;;;;;;;;;;;;;;;19.29;64.80;100610.53;2050125;28;19924;-51
2022/05/27 00:52:34;;;;;;;;;;;;;;;19.29;64.79;100605.06;2046783;28;19945;-51
2022/05/27 00:53:40;;;;;;;;;;;;;;;19.28;64.77;100612.50;2048015;28;19959;-48
2022/05/27 00:54:41;;;;;;;;;;;;;;;19.27;64.64;100605.44;2045933;28;19976;-51
2022/05/27 00:55:44;;;;;;;;;;;;;;;19.28;64.44;100601.53;2043010;28;19917;-51
2022/05/27 00:56:47;;;;;;;;;;;;;;;19.29;64.64;100607.78;2044433;28;19941;-51
2022/05/27 00:57:53;;;;;;;;;;;;;;;19.28;64.82;100607.00;2041955;28;19906;-50
2022/05/27 00:58:57;;;;;;;;;;;;;;;19.27;64.60;100605.44;2042266;28;20012;-50
2022/05/27 00:59:59;;;;;;;;;;;;;;;19.27;64.52;100604.66;2049219;28;20173;-51
2022/05/27 01:00:59;;;;;;;;;;;;;;;19.26;64.79;100609.38;2042115;28;19926;-50
2022/05/27 01:02:00;;;;;;;;;;;;;;;19.26;65.32;100608.59;2044454;28;19953;-49
2022/05/27 01:03:01;;;;;;;;;;;;;;;19.26;65.26;100605.84;2043127;28;20348;-48
2022/05/27 01:04:01;;;;;;;;;;;;;;;19.26;65.29;100606.63;2043595;28;19964;-47
2022/05/27 01:05:03;;;;;;;;;;;;;;;19.26;64.87;100606.63;2043545;28;19906;-48
2022/05/27 01:06:04;;;;;;;;;;;;;;;19.25;64.47;100602.31;2043355;28;19918;-49
2022/05/27 01:07:05;;;;;;;;;;;;;;;19.27;64.69;100605.44;2045304;28;20053;-49
2022/05/27 01:08:07;;;;;;;;;;;;;;;19.27;64.77;100596.41;2044774;28;20023;-48
2022/05/27 01:09:07;;;;;;;;;;;;;;;19.26;65.17;100594.84;2050611;28;19920;-50
2022/05/27 01:10:09;;;;;;;;;;;;;;;19.26;64.96;100603.88;2043732;28;20383;-50
2022/05/27 01:11:16;;;;;;;;;;;;;;;19.25;64.88;100596.81;2042736;28;19914;-48
2022/05/27 01:12:31;;;;;;;;;;;;;;;19.26;64.71;100601.13;2044515;28;19956;-51
2022/05/27 01:13:57;;;;;;;;;;;;;;;19.26;64.67;100601.13;2044017;28;20063;-51
2022/05/27 01:15:08;;;;;;;;;;;;;;;19.25;64.53;100596.81;2041576;28;19926;-50
2022/05/27 01:16:08;;;;;;;;;;;;;;;19.26;64.70;100586.59;2043146;28;20063;-49
2022/05/27 01:17:20;;;;;;;;;;;;;;;19.26;65.03;100592.88;2043510;28;19910;-48
2022/05/27 01:20:38;;;;;;;;;;;;;;;19.26;65.28;100592.09;2039589;28;19918;-51
2022/05/27 01:21:49;;;;;;;;;;;;;;;19.25;65.62;100594.06;2040424;28;20405;-51
2022/05/27 01:22:56;;;;;;;;;;;;;;;19.27;65.02;100593.66;2043177;28;19914;-52
2022/05/27 01:24:15;;;;;;;;;;;;;;;19.26;64.89;100590.13;2045147;28;20277;-48
2022/05/27 01:25:21;;;;;;;;;;;;;;;19.26;65.13;100592.09;2037584;28;19906;-49
2022/05/27 01:26:40;;;;;;;;;;;;;;;19.25;65.11;100591.31;2042696;28;19969;-50
2022/05/27 01:27:43;;;;;;;;;;;;;;;19.26;64.99;100595.63;2043657;28;19922;-48
2022/05/27 01:28:46;;;;;;;;;;;;;;;19.26;65.08;100592.09;2044743;28;19918;-51
2022/05/27 01:30:05;;;;;;;;;;;;;;;19.26;65.17;100581.91;2040601;28;20204;-49
2022/05/27 01:31:11;;;;;;;;;;;;;;;19.26;65.12;100595.63;2046773;28;19913;-50
2022/05/27 01:32:38;;;;;;;;;;;;;;;19.26;64.79;100592.09;2045271;28;19918;-48
2022/05/27 01:33:48;;;;;;;;;;;;;;;19.26;64.83;100592.88;2033723;28;20884;-51
2022/05/27 01:35:00;;;;;;;;;;;;;;;19.23;65.39;100588.22;2039200;28;20530;-52
2022/05/27 01:36:23;;;;;;;;;;;;;;;19.22;65.74;100594.09;2044297;28;19914;-51
2022/05/27 01:37:43;;;;;;;;;;;;;;;19.23;65.68;100590.97;2041327;28;19910;-52
2022/05/27 01:38:45;;;;;;;;;;;;;;;19.24;65.32;100589.78;2048735;28;19976;-47
2022/05/27 01:40:06;;;;;;;;;;;;;;;19.25;65.35;100590.53;2043703;28;19919;-49
2022/05/27 01:41:13;;;;;;;;;;;;;;;19.23;65.64;100590.97;2045320;28;20469;-49
2022/05/27 01:42:23;;;;;;;;;;;;;;;19.24;65.62;100594.50;2041928;28;19914;-51
2022/05/27 01:43:33;;;;;;;;;;;;;;;19.24;65.19;100587.03;2043348;28;19910;-50
2022/05/27 01:44:41;;;;;;;;;;;;;;;19.24;64.97;100586.25;2043797;28;19914;-48
2022/05/27 01:45:51;;;;;;;;;;;;;;;19.24;65.01;100586.25;2045360;28;19985;-50
2022/05/27 01:46:51;;;;;;;;;;;;;;;19.25;64.98;100585.03;2042871;28;19941;-51
2022/05/27 01:47:54;;;;;;;;;;;;;;;19.24;65.12;100587.03;2044346;28;19917;-50
2022/05/27 01:48:55;;;;;;;;;;;;;;;19.25;65.32;100585.03;2045717;28;20535;-50
2022/05/27 01:50:07;;;;;;;;;;;;;;;19.25;65.17;100585.03;2046177;28;19906;-49
2022/05/27 01:51:12;;;;;;;;;;;;;;;19.25;65.24;100593.28;2040834;28;19906;-50
2022/05/27 01:52:12;;;;;;;;;;;;;;;19.26;65.14;100581.13;2044316;28;19914;-48
2022/05/27 01:53:31;;;;;;;;;;;;;;;19.24;64.97;100576.06;2045792;28;19918;-51
2022/05/27 01:54:34;;;;;;;;;;;;;;;19.24;65.06;100583.50;2047242;28;19906;-50
2022/05/27 01:55:40;;;;;;;;;;;;;;;19.25;65.11;100574.06;2043259;28;20266;-47
2022/05/27 01:56:47;;;;;;;;;;;;;;;19.23;64.94;100579.19;2046961;28;19914;-51
2022/05/27 01:57:48;;;;;;;;;;;;;;;19.23;64.97;100573.69;2051214;28;19913;-48
2022/05/27 01:59:08;;;;;;;;;;;;;;;19.23;65.07;100576.44;2053943;28;20187;-50
2022/05/27 02:00:11;;;;;;;;;;;;;;;19.22;65.50;100567.41;2045262;28;20024;-50
2022/05/27 02:01:15;;;;;;;;;;;;;;;19.21;65.87;100576.84;2044926;28;19928;-51
2022/05/27 02:02:18;;;;;;;;;;;;;;;19.21;65.82;100562.31;2043584;28;21184;-49
2022/05/27 02:03:24;;;;;;;;;;;;;;;19.21;65.61;100563.09;2045225;28;20120;-50
2022/05/27 02:04:37;;;;;;;;;;;;;;;19.21;65.47;100563.09;2045654;28;20011;-49
2022/05/27 02:05:57;;;;;;;;;;;;;;;19.21;65.41;100568.59;2039642;28;20014;-50
2022/05/27 02:07:21;;;;;;;;;;;;;;;19.19;65.79;100570.94;2040141;28;20280;-49
2022/05/27 02:08:24;;;;;;;;;;;;;;;19.20;65.73;100564.28;2036334;28;20316;-49
2022/05/27 02:09:27;;;;;;;;;;;;;;;19.18;66.13;100563.91;2038653;28;19914;-48
2022/05/27 02:10:28;;;;;;;;;;;;;;;19.18;66.09;100566.66;2047050;28;20414;-51
2022/05/27 02:11:28;;;;;;;;;;;;;;;19.20;65.79;100556.03;2044524;28;20309;-50
2022/05/27 02:12:31;;;;;;;;;;;;;;;19.21;65.56;100560.34;2044521;28;20428;-51
2022/05/27 02:13:32;;;;;;;;;;;;;;;19.21;65.45;100563.09;2040569;28;19968;-47
2022/05/27 02:14:38;;;;;;;;;;;;;;;19.21;65.29;100562.31;2042473;28;20329;-51
2022/05/27 02:15:41;;;;;;;;;;;;;;;19.22;65.55;100564.66;2045318;28;19921;-49
2022/05/27 02:16:51;;;;;;;;;;;;;;;19.21;65.80;100567.81;2045584;28;20233;-49
2022/05/27 02:17:54;;;;;;;;;;;;;;;19.20;65.05;100567.03;2044093;28;19973;-49
2022/05/27 02:18:59;;;;;;;;;;;;;;;19.20;65.06;100560.75;2046279;28;19922;-51
2022/05/27 02:20:08;;;;;;;;;;;;;;;19.20;65.13;100561.53;2044527;28;19968;-51
2022/05/27 02:21:12;;;;;;;;;;;;;;;19.19;65.14;100565.47;2044742;28;19990;-49
2022/05/27 02:22:14;;;;;;;;;;;;;;;19.19;64.97;100557.22;2044054;28;20268;-49
2022/05/27 02:23:35;;;;;;;;;;;;;;;19.19;65.15;100556.47;2044581;28;19918;-51
2022/05/27 02:24:39;;;;;;;;;;;;;;;19.18;65.09;100552.94;2044582;28;19918;-50
2022/05/27 02:25:41;;;;;;;;;;;;;;;19.17;65.21;100551.38;2044458;28;19944;-50
2022/05/27 02:26:44;;;;;;;;;;;;;;;19.17;64.95;100554.13;2045542;28;20028;-51
2022/05/27 02:27:44;;;;;;;;;;;;;;;19.17;65.03;100556.88;2042443;28;19988;-52
2022/05/27 02:29:09;;;;;;;;;;;;;;;19.17;65.07;100551.38;2045093;28;19926;-51
2022/05/27 02:30:12;;;;;;;;;;;;;;;19.16;65.34;100547.06;2046724;28;19929;-47
2022/05/27 02:31:18;;;;;;;;;;;;;;;19.15;64.55;100550.97;2046161;28;19985;-50
2022/05/27 02:32:25;;;;;;;;;;;;;;;19.15;64.87;100548.22;2044020;28;19922;-51
2022/05/27 02:35:08;;;;;;;;;;;;;;;19.15;64.81;100550.97;2042613;28;19958;-48
2022/05/27 02:36:10;;;;;;;;;;;;;;;19.16;65.06;100555.28;2043314;28;19933;-47
2022/05/27 02:37:15;;;;;;;;;;;;;;;19.16;65.37;100555.28;2044153;28;19918;-48
2022/05/27 02:38:15;;;;;;;;;;;;;;;19.15;65.72;100548.22;2045937;28;20009;-48
2022/05/27 02:39:16;;;;;;;;;;;;;;;19.15;65.54;100548.22;2043334;28;20328;-47
2022/05/27 02:40:18;;;;;;;;;;;;;;;19.15;65.62;100550.19;2044499;28;19926;-48
2022/05/27 02:41:24;;;;;;;;;;;;;;;19.16;65.65;100546.28;2044456;28;19926;-49
2022/05/27 02:42:28;;;;;;;;;;;;;;;19.15;65.63;100553.72;2043901;28;20407;-51
2022/05/27 02:43:38;;;;;;;;;;;;;;;19.16;65.63;100552.56;2047047;28;19949;-50
2022/05/27 02:44:41;;;;;;;;;;;;;;;19.16;65.38;100555.28;2048165;28;20315;-50
2022/05/27 02:45:49;;;;;;;;;;;;;;;19.16;65.36;100558.03;2052747;28;20185;-51
2022/05/27 02:47:01;;;;;;;;;;;;;;;19.15;65.20;100550.97;2043693;28;19949;-47
2022/05/27 02:48:05;;;;;;;;;;;;;;;19.14;65.04;100546.66;2044778;28;19917;-50
2022/05/27 02:49:05;;;;;;;;;;;;;;;19.13;65.00;100545.13;2052376;28;19914;-50
2022/05/27 02:50:29;;;;;;;;;;;;;;;19.15;65.21;100550.97;2043622;28;19918;-49
2022/05/27 02:51:39;;;;;;;;;;;;;;;19.13;65.59;100542.38;2043056;28;19914;-50
2022/05/27 02:52:48;;;;;;;;;;;;;;;19.14;65.33;100548.66;2052048;28;19925;-50
2022/05/27 02:53:54;;;;;;;;;;;;;;;19.13;65.33;100550.63;2050102;28;20282;-49
2022/05/27 02:55:29;;;;;;;;;;;;;;;19.15;65.52;100548.22;2045617;28;20411;-51
2022/05/27 02:56:36;;;;;;;;;;;;;;;19.13;65.65;100542.38;2032011;28;19914;-51
2022/05/27 02:57:43;;;;;;;;;;;;;;;19.14;65.62;100538.44;2035498;28;19924;-49
2022/05/27 02:58:43;;;;;;;;;;;;;;;19.15;65.63;100541.97;2035936;28;20568;-51
2022/05/27 02:59:45;;;;;;;;;;;;;;;19.14;65.48;100540.41;2045049;28;19921;-50
2022/05/27 03:00:46;;;;;;;;;;;;;;;19.13;64.96;100541.59;2045582;28;20238;-51
2022/05/27 03:01:46;;;;;;;;;;;;;;;19.13;64.87;100536.09;2042698;28;19921;-47
2022/05/27 03:02:47;;;;;;;;;;;;;;;19.11;64.95;100538.47;2042312;28;19914;-50
2022/05/27 03:03:48;;;;;;;;;;;;;;;19.10;64.71;100532.19;2045022;28;19969;-51
2022/05/27 03:04:53;;;;;;;;;;;;;;;19.10;64.87;100539.63;2046775;28;20008;-50
2022/05/27 03:06:09;;;;;;;;;;;;;;;19.09;65.16;100533.38;2043690;28;20048;-50
2022/05/27 03:07:22;;;;;;;;;;;;;;;19.09;65.59;100538.84;2049801;28;20395;-49
2022/05/27 03:08:23;;;;;;;;;;;;;;;19.09;65.39;100521.63;2045404;28;19910;-51
2022/05/27 03:09:28;;;;;;;;;;;;;;;19.09;65.34;100533.38;2044035;28;19913;-50
2022/05/27 03:10:48;;;;;;;;;;;;;;;19.08;65.63;100531.81;2044600;28;20005;-51
2022/05/27 03:11:51;;;;;;;;;;;;;;;19.08;65.62;100520.84;2044734;28;19913;-51
2022/05/27 03:13:09;;;;;;;;;;;;;;;19.10;65.35;100523.94;2045819;28;19921;-49
2022/05/27 03:14:28;;;;;;;;;;;;;;;19.10;65.58;100529.44;2041347;28;19921;-49
2022/05/27 03:15:47;;;;;;;;;;;;;;;19.06;66.18;100520.47;2038674;28;20028;-48
2022/05/27 03:16:47;;;;;;;;;;;;;;;19.07;66.48;100527.50;2043143;28;20061;-49
2022/05/27 03:17:50;;;;;;;;;;;;;;;19.07;66.52;100518.50;2044940;28;19914;-50
2022/05/27 03:19:09;;;;;;;;;;;;;;;19.08;66.16;100515.34;2045639;28;19905;-48
2022/05/27 03:20:15;;;;;;;;;;;;;;;19.09;66.13;100525.13;2043404;28;20235;-52
2022/05/27 03:21:26;;;;;;;;;;;;;;;19.08;66.58;100515.34;2042686;28;19928;-48
2022/05/27 03:22:38;;;;;;;;;;;;;;;19.07;66.55;100518.50;2042007;28;20072;-49
2022/05/27 03:23:48;;;;;;;;;;;;;;;19.05;66.78;100516.13;2044662;28;20493;-50
2022/05/27 03:25:08;;;;;;;;;;;;;;;19.08;66.76;100522.81;2045028;28;19925;-49
2022/05/27 03:26:09;;;;;;;;;;;;;;;19.08;67.03;100517.31;2040366;28;19928;-47
2022/05/27 03:27:34;;;;;;;;;;;;;;;19.09;66.76;100529.88;2041568;28;19922;-49
2022/05/27 03:28:44;;;;;;;;;;;;;;;19.08;66.71;100523.59;2041486;28;19922;-48
2022/05/27 03:29:47;;;;;;;;;;;;;;;19.09;66.22;100522.38;2044400;28;19924;-47
2022/05/27 03:30:59;;;;;;;;;;;;;;;19.11;65.96;100522.00;2044185;28;19914;-52
2022/05/27 03:32:24;;;;;;;;;;;;;;;19.09;66.19;100511.41;2042209;28;19991;-49
2022/05/27 03:33:24;;;;;;;;;;;;;;;19.07;66.91;100522.03;2045380;28;19921;-50
2022/05/27 03:34:24;;;;;;;;;;;;;;;19.08;66.93;100520.84;2052304;28;19918;-50
2022/05/27 03:35:24;;;;;;;;;;;;;;;19.08;66.93;100520.06;2051154;28;20128;-50
2022/05/27 03:36:34;;;;;;;;;;;;;;;19.09;66.79;100518.88;2042487;28;20375;-48
2022/05/27 03:37:44;;;;;;;;;;;;;;;19.08;66.72;100517.31;2043736;28;20046;-51
2022/05/27 03:38:59;;;;;;;;;;;;;;;19.09;66.56;100521.63;2040670;28;19989;-51
2022/05/27 03:40:07;;;;;;;;;;;;;;;19.10;66.24;100512.19;2047925;28;20016;-51
2022/05/27 03:41:10;;;;;;;;;;;;;;;19.10;66.10;100518.47;2044978;28;19925;-48
2022/05/27 03:42:11;;;;;;;;;;;;;;;19.09;66.10;100514.16;2041833;28;19992;-51
2022/05/27 03:43:12;;;;;;;;;;;;;;;19.09;66.75;100518.88;2044466;28;19928;-51
2022/05/27 03:44:14;;;;;;;;;;;;;;;19.08;66.81;100520.06;2045115;28;19921;-49
2022/05/27 03:45:15;;;;;;;;;;;;;;;19.08;66.84;100515.34;2044309;28;20252;-50
2022/05/27 03:46:26;;;;;;;;;;;;;;;19.08;67.06;100509.88;2051850;28;19922;-47
2022/05/27 03:47:27;;;;;;;;;;;;;;;19.09;67.22;100518.88;2050595;28;20399;-47
2022/05/27 03:48:28;;;;;;;;;;;;;;;19.08;66.87;100515.34;2049952;28;19910;-51
2022/05/27 03:49:29;;;;;;;;;;;;;;;19.09;66.63;100514.16;2046599;28;19953;-48
2022/05/27 03:50:29;;;;;;;;;;;;;;;19.09;66.66;100500.41;2044636;28;19972;-49
2022/05/27 03:51:32;;;;;;;;;;;;;;;19.09;67.03;100511.41;2042964;28;19914;-49
2022/05/27 03:52:37;;;;;;;;;;;;;;;19.07;67.45;100504.78;2044781;28;19906;-48
2022/05/27 03:55:18;;;;;;;;;;;;;;;19.06;66.88;100505.94;2027814;28;19919;-48
2022/05/27 03:56:18;;;;;;;;;;;;;;;19.09;66.81;100513.38;2028717;29;19922;-49
2022/05/27 03:57:20;;;;;;;;;;;;;;;19.08;66.96;100507.13;2025974;29;20009;-47
2022/05/27 03:58:21;;;;;;;;;;;;;;;19.09;66.81;100502.41;2027613;29;20512;-49
2022/05/27 03:59:22;;;;;;;;;;;;;;;19.10;66.87;100518.47;2026987;29;19918;-47
2022/05/27 04:00:22;;;;;;;;;;;;;;;19.08;66.95;100509.88;2019481;29;19915;-50
2022/05/27 04:01:29;;;;;;;;;;;;;;;19.08;67.02;100509.88;2042777;28;20048;-50
2022/05/27 04:02:29;;;;;;;;;;;;;;;19.06;67.31;100517.72;2040846;28;20016;-49
2022/05/27 04:03:29;;;;;;;;;;;;;;;19.07;67.29;100513.78;2042882;28;20293;-51
2022/05/27 04:04:30;;;;;;;;;;;;;;;19.08;66.95;100522.81;2043714;28;20119;-50
2022/05/27 04:05:30;;;;;;;;;;;;;;;19.05;67.45;100518.88;2044898;28;20763;-51
2022/05/27 04:06:31;;;;;;;;;;;;;;;19.06;67.39;100514.97;2049457;28;19914;-49
2022/05/27 04:07:32;;;;;;;;;;;;;;;19.05;67.33;100524.38;2042969;28;19918;-52
2022/05/27 04:08:32;;;;;;;;;;;;;;;19.04;67.51;100514.56;2043184;28;19910;-50
2022/05/27 04:09:33;;;;;;;;;;;;;;;19.05;67.55;100524.38;2043924;28;19913;-49
2022/05/27 04:10:34;;;;;;;;;;;;;;;19.05;67.35;100513.41;2042642;28;19985;-50
2022/05/27 04:11:34;;;;;;;;;;;;;;;19.06;67.07;100522.41;2047828;28;20187;-50
2022/05/27 04:12:35;;;;;;;;;;;;;;;19.04;67.22;100516.53;2043593;28;20164;-49
2022/05/27 04:13:36;;;;;;;;;;;;;;;19.06;67.04;100527.91;2044042;28;20838;-48
2022/05/27 04:14:36;;;;;;;;;;;;;;;19.05;66.93;100526.34;2045741;28;19956;-51
2022/05/27 04:15:36;;;;;;;;;;;;;;;19.06;66.74;100527.91;2042493;28;19914;-51
2022/05/27 04:16:37;;;;;;;;;;;;;;;19.06;66.79;100528.69;2043753;28;19914;-51
2022/05/27 04:17:37;;;;;;;;;;;;;;;19.07;66.68;100526.72;2043947;28;19918;-51
2022/05/27 04:18:38;;;;;;;;;;;;;;;19.06;66.63;100528.69;2043399;28;19921;-48
2022/05/27 04:19:38;;;;;;;;;;;;;;;19.08;66.38;100520.06;2053435;28;19913;-50
2022/05/27 04:20:38;;;;;;;;;;;;;;;19.07;66.21;100521.25;2051262;28;20295;-50
2022/05/27 04:21:38;;;;;;;;;;;;;;;19.06;66.46;100520.47;2043259;28;19918;-50
2022/05/27 04:22:39;;;;;;;;;;;;;;;19.08;66.47;100522.81;2045530;28;20295;-48
2022/05/27 04:23:39;;;;;;;;;;;;;;;19.07;66.20;100515.75;2045011;28;19917;-50
2022/05/27 04:24:40;;;;;;;;;;;;;;;19.08;66.18;100522.81;2044033;28;20301;-49
2022/05/27 04:25:40;;;;;;;;;;;;;;;19.06;66.63;100523.19;2050053;28;19914;-49
2022/05/27 04:26:41;;;;;;;;;;;;;;;19.03;67.30;100524.00;2051803;28;19922;-50
2022/05/27 04:27:41;;;;;;;;;;;;;;;19.03;67.25;100521.28;2053868;28;19917;-48
2022/05/27 04:28:42;;;;;;;;;;;;;;;19.03;67.56;100512.25;2041523;28;20371;-49
2022/05/27 04:29:47;;;;;;;;;;;;;;;19.02;67.53;100525.19;2043320;28;20208;-49
2022/05/27 04:30:47;;;;;;;;;;;;;;;19.02;67.64;100521.66;2042703;28;19918;-48
2022/05/27 04:31:47;;;;;;;;;;;;;;;19.01;67.96;100525.59;2042928;28;20231;-51
2022/05/27 04:32:48;;;;;;;;;;;;;;;18.98;68.09;100522.44;2048103;28;19917;-50
2022/05/27 04:33:48;;;;;;;;;;;;;;;19.00;67.88;100519.31;2042434;28;19924;-48
2022/05/27 04:34:49;;;;;;;;;;;;;;;19.00;67.93;100519.31;2042488;28;19961;-50
2022/05/27 04:35:50;;;;;;;;;;;;;;;19.01;67.85;100526.38;2046587;28;24086;-50
2022/05/27 04:36:50;;;;;;;;;;;;;;;19.01;67.86;100520.09;2047176;28;20269;-47
2022/05/27 04:37:51;;;;;;;;;;;;;;;19.00;67.90;100522.06;2042769;28;20894;-51
2022/05/27 04:38:51;;;;;;;;;;;;;;;19.02;67.50;100525.19;2044469;28;19944;-48
2022/05/27 04:39:51;;;;;;;;;;;;;;;19.01;67.65;100526.38;2042688;28;20262;-48
2022/05/27 04:40:51;;;;;;;;;;;;;;;18.99;68.18;100521.28;2043520;28;20796;-51
2022/05/27 04:41:52;;;;;;;;;;;;;;;18.99;68.06;100528.72;2044296;28;19922;-51
2022/05/27 04:42:52;;;;;;;;;;;;;;;19.00;68.11;100527.53;2042636;28;20064;-50
2022/05/27 04:43:52;;;;;;;;;;;;;;;19.01;67.99;100529.13;2043666;28;19925;-50
2022/05/27 04:44:53;;;;;;;;;;;;;;;19.00;68.27;100533.03;2044530;28;19925;-50
2022/05/27 04:45:53;;;;;;;;;;;;;;;18.99;67.98;100528.72;2044951;28;20748;-52
2022/05/27 04:46:53;;;;;;;;;;;;;;;18.99;68.15;100529.50;2045024;28;19921;-50
2022/05/27 04:47:54;;;;;;;;;;;;;;;19.00;68.32;100533.03;2044431;28;19941;-51
2022/05/27 04:48:54;;;;;;;;;;;;;;;19.00;68.24;100530.28;2043652;28;19957;-51
2022/05/27 04:49:54;;;;;;;;;;;;;;;18.99;68.29;100529.50;2041292;28;19918;-50
2022/05/27 04:50:55;;;;;;;;;;;;;;;19.01;68.16;100534.59;2040347;28;19918;-49
2022/05/27 04:51:55;;;;;;;;;;;;;;;19.01;68.20;100542.06;2044346;28;19906;-51
2022/05/27 04:52:55;;;;;;;;;;;;;;;19.00;68.21;100541.28;2044042;28;20297;-48
2022/05/27 04:53:55;;;;;;;;;;;;;;;19.01;67.90;100547.53;2042602;28;20695;-50
2022/05/27 04:54:57;;;;;;;;;;;;;;;19.01;67.68;100544.81;2047905;28;19928;-50
2022/05/27 04:55:57;;;;;;;;;;;;;;;19.01;67.60;100540.09;2043204;28;20136;-50
2022/05/27 04:56:59;;;;;;;;;;;;;;;19.00;67.83;100546.75;2043571;28;19914;-51
2022/05/27 04:57:59;;;;;;;;;;;;;;;18.99;68.12;100543.22;2044967;28;19956;-50
2022/05/27 04:59:00;;;;;;;;;;;;;;;18.99;68.37;100545.19;2042664;28;19911;-47
2022/05/27 05:00:03;;;;;;;;;;;;;;;18.98;68.60;100549.91;2042121;28;19972;-48
2022/05/27 05:01:03;;;;;;;;;;;;;;;18.99;68.26;100553.44;2036163;28;19929;-48
2022/05/27 05:02:03;;;;;;;;;;;;;;;19.00;67.09;100552.25;2043861;28;20264;-49
2022/05/27 05:03:04;;;;;;;;;;;;;;;19.00;67.17;100549.50;2044275;28;19918;-51
2022/05/27 05:04:04;;;;;;;;;;;;;;;18.99;67.06;100553.44;2043078;28;19940;-50
2022/05/27 05:05:05;;;;;;;;;;;;;;;18.97;67.35;100544.84;2044889;28;20268;-51
2022/05/27 05:06:05;;;;;;;;;;;;;;;18.99;67.21;100539.72;2041418;28;19940;-51
2022/05/27 05:07:07;;;;;;;;;;;;;;;19.00;66.95;100546.75;2043328;28;20017;-49
2022/05/27 05:08:15;;;;;;;;;;;;;;;18.99;66.74;100543.22;2043877;28;19914;-50
2022/05/27 05:09:15;;;;;;;;;;;;;;;18.98;66.33;100549.16;2049776;28;19951;-48
2022/05/27 05:10:18;;;;;;;;;;;;;;;18.97;66.39;100536.59;2048096;28;20022;-51
2022/05/27 05:11:18;;;;;;;;;;;;;;;18.96;66.52;100546.00;2046158;28;19913;-48
2022/05/27 05:12:22;;;;;;;;;;;;;;;18.96;66.79;100543.25;2045157;28;19910;-49
2022/05/27 05:13:23;;;;;;;;;;;;;;;18.96;66.77;100551.50;2046895;28;19968;-48
2022/05/27 05:14:23;;;;;;;;;;;;;;;18.96;66.69;100540.53;2044473;28;20187;-50
2022/05/27 05:15:24;;;;;;;;;;;;;;;18.95;65.87;100549.94;2044765;28;20078;-51
2022/05/27 05:16:25;;;;;;;;;;;;;;;18.91;65.67;100538.97;2045019;28;19921;-50
2022/05/27 05:17:25;;;;;;;;;;;;;;;18.89;65.51;100543.28;2044992;28;20004;-47
2022/05/27 05:18:26;;;;;;;;;;;;;;;18.88;65.52;100544.47;2046033;28;19965;-50
2022/05/27 05:19:26;;;;;;;;;;;;;;;18.87;66.02;100545.69;2046331;28;19968;-50
2022/05/27 05:20:28;;;;;;;;;;;;;;;18.89;66.34;100546.03;2044777;28;19921;-50
2022/05/27 05:21:28;;;;;;;;;;;;;;;18.89;66.13;100546.03;2045307;28;19925;-47
2022/05/27 05:22:28;;;;;;;;;;;;;;;18.89;65.90;100544.06;2046334;28;19972;-52
2022/05/27 05:23:29;;;;;;;;;;;;;;;18.87;65.49;100549.19;2044133;28;19996;-51
2022/05/27 05:24:29;;;;;;;;;;;;;;;18.87;65.43;100553.91;2049115;28;20015;-47
2022/05/27 05:25:29;;;;;;;;;;;;;;;18.86;65.63;100549.59;2048487;28;19913;-50
2022/05/27 05:26:30;;;;;;;;;;;;;;;18.87;65.70;100549.19;2045421;28;19922;-51
2022/05/27 05:27:30;;;;;;;;;;;;;;;18.86;65.63;100550.38;2043762;28;20447;-48
2022/05/27 05:28:31;;;;;;;;;;;;;;;18.87;65.63;100556.66;2045082;28;19925;-49
2022/05/27 05:29:31;;;;;;;;;;;;;;;18.85;66.00;100554.31;2045620;28;19918;-48
2022/05/27 05:30:31;;;;;;;;;;;;;;;18.87;66.20;100548.41;2043993;28;19922;-49
2022/05/27 05:31:32;;;;;;;;;;;;;;;18.88;66.24;100555.44;2046000;28;19918;-51
2022/05/27 05:32:32;;;;;;;;;;;;;;;18.87;66.24;100551.16;2043731;28;19925;-51
2022/05/27 05:33:33;;;;;;;;;;;;;;;18.87;66.01;100554.69;2043477;28;19972;-48
2022/05/27 05:34:34;;;;;;;;;;;;;;;18.83;65.36;100542.94;2045571;28;19969;-50